createdAt,value
2019-04-27T00:03:23.755Z,80.5
2019-04-27T00:08:19.298Z,80.7
2019-04-27T00:13:15.397Z,80.4
2019-04-27T00:18:13.845Z,81.6
2019-04-27T00:23:06.802Z,82.7
2019-04-27T00:28:03.509Z,81.9
2019-04-27T00:32:59.152Z,82.7
2019-04-27T00:37:55.274Z,82.3
2019-04-27T00:42:51.597Z,82.9
2019-04-27T00:47:56.141Z,82.7
2019-04-27T00:52:43.376Z,83.4
2019-04-27T00:57:39.493Z,85.3
2019-04-27T01:02:35.575Z,85.4
2019-04-27T01:07:33.366Z,85
2019-04-27T01:12:27.925Z,85.6
2019-04-27T01:17:23.939Z,86.2
2019-04-27T01:22:20.008Z,86.6
2019-04-27T01:27:16.210Z,87
2019-04-27T01:32:12.402Z,86.6
2019-04-27T01:37:09.386Z,86.3
2019-04-27T01:42:04.684Z,86.9
2019-04-27T01:47:00.816Z,86.4
2019-04-27T01:51:57.068Z,86.6
2019-04-27T01:56:53.074Z,86
2019-04-27T02:01:49.187Z,86.3
2019-04-27T02:06:44.992Z,87
2019-04-27T02:11:41.076Z,87.2
2019-04-27T02:16:38.963Z,86.6
2019-04-27T02:21:33.214Z,87.6
2019-04-27T02:26:29.830Z,88.6
2019-04-27T02:31:25.314Z,88.6
2019-04-27T02:36:20.881Z,88.9
2019-04-27T02:41:16.714Z,88.7
2019-04-27T02:46:12.860Z,88.8
2019-04-27T02:51:10.019Z,88.5
2019-04-27T02:56:04.459Z,88.7
2019-04-27T03:01:00.586Z,89.3
2019-04-27T03:05:56.491Z,89.6
2019-04-27T03:10:52.434Z,89.9
2019-04-27T03:15:49.644Z,89.9
2019-04-27T03:20:44.258Z,89.7
2019-04-27T03:25:40.468Z,89.6
2019-04-27T03:30:36.786Z,90.1
2019-04-27T03:35:36.362Z,90
2019-04-27T03:40:30.664Z,90.1
2019-04-27T03:45:25.235Z,90.1
2019-04-27T03:50:21.332Z,90.1
2019-04-27T03:55:19.712Z,89.5
2019-04-27T04:00:13.826Z,88
2019-04-27T04:05:10.201Z,86.2
2019-04-27T04:10:06.691Z,86
2019-04-27T04:15:03.178Z,86.6
2019-04-27T04:20:01.112Z,84.9
2019-04-27T04:24:55.762Z,85.4
2019-04-27T04:29:51.690Z,85.2
2019-04-27T04:34:49.997Z,85.6
2019-04-27T04:39:44.298Z,82.7
2019-04-27T04:44:40.936Z,82.1
2019-04-27T04:49:39.658Z,80.9
2019-04-27T04:54:34.484Z,76.7
2019-04-27T04:59:32.055Z,68.4
2019-04-27T05:04:29.968Z,64.2
2019-04-27T05:09:29.518Z,58.5
2019-04-27T05:14:25.896Z,57.2
2019-04-27T05:19:23.359Z,54.7
2019-04-27T05:24:21.128Z,51.1
2019-04-27T05:29:19.187Z,51.5
2019-04-27T05:34:15.896Z,48.7
2019-04-27T05:39:13.366Z,47.1
2019-04-27T05:44:11.143Z,44.7
2019-04-27T05:49:09.516Z,41.7
2019-04-27T05:54:05.040Z,41.7
2019-04-27T05:59:02.328Z,39.9
2019-04-27T06:03:59.313Z,46.2
2019-04-27T06:08:55.860Z,44.4
2019-04-27T06:13:51.600Z,39.7
2019-04-27T06:18:49.369Z,37.9
2019-04-27T06:23:46.396Z,38.8
2019-04-27T06:28:42.477Z,40.6
2019-04-27T06:33:39.101Z,44.6
2019-04-27T06:38:34.586Z,38.7
2019-04-27T06:43:32.102Z,39.4
2019-04-27T06:48:29.603Z,36.5
2019-04-27T06:53:26.304Z,31.7
2019-04-27T06:58:24.243Z,33.3
2019-04-27T07:03:21.546Z,41.2
2019-04-27T07:08:16.521Z,46.1
2019-04-27T07:13:11.355Z,40.2
2019-04-27T07:18:07.587Z,37.6
2019-04-27T07:23:05.162Z,32.7
2019-04-27T07:28:02.845Z,38.2
2019-04-27T07:33:00.355Z,31.9
2019-04-27T07:37:58.781Z,30.6
2019-04-27T07:42:55.977Z,28.7
2019-04-27T07:47:54.319Z,27.7
2019-04-27T07:52:52.086Z,27.9
2019-04-27T07:57:49.491Z,26.5
2019-04-27T08:02:48.451Z,28.6
2019-04-27T08:07:43.198Z,29.6
2019-04-27T08:12:40.034Z,29.4
2019-04-27T08:17:35.715Z,30.3
2019-04-27T08:22:31.549Z,33.1
2019-04-27T08:27:31.931Z,26.7
2019-04-27T08:32:29.243Z,25.6
2019-04-27T08:37:25.754Z,26
2019-04-27T08:42:22.390Z,24.6
2019-04-27T08:47:19.527Z,27.1
2019-04-27T08:52:16.149Z,23.8
2019-04-27T08:57:13.751Z,23.8
2019-04-27T09:02:11.380Z,23.1
2019-04-27T09:07:08.784Z,27.8
2019-04-27T09:12:03.939Z,26.3
2019-04-27T09:17:02.623Z,32.6
2019-04-27T09:21:54.386Z,32.8
2019-04-27T09:26:49.322Z,29.9
2019-04-27T09:31:43.865Z,31
2019-04-27T09:36:39.845Z,24.5
2019-04-27T09:41:38.405Z,23.6
2019-04-27T09:46:36.376Z,25.1
2019-04-27T09:51:31.788Z,27.3
2019-04-27T09:56:27.928Z,24.7
2019-04-27T10:01:26.427Z,24.9
2019-04-27T10:06:21.943Z,26.2
2019-04-27T10:11:19.287Z,26.5
2019-04-27T10:16:15.343Z,24.6
2019-04-27T10:21:11.854Z,24.8
2019-04-27T10:26:08.416Z,25.6
2019-04-27T10:31:06.804Z,24.5
2019-04-27T10:36:01.609Z,27.6
2019-04-27T10:40:58.114Z,23.2
2019-04-27T10:45:56.455Z,24.5
2019-04-27T10:50:51.815Z,23.9
2019-04-27T10:55:48.400Z,27.7
2019-04-27T11:00:44.965Z,23
2019-04-27T11:05:41.843Z,22.7
2019-04-27T11:10:38.819Z,23.4
2019-04-27T11:15:37.084Z,21.8
2019-04-27T11:20:32.096Z,25.5
2019-04-27T11:25:27.683Z,31.1
2019-04-27T11:30:21.721Z,32.9
2019-04-27T11:35:16.323Z,35.7
2019-04-27T11:40:11.389Z,38.7
2019-04-27T11:45:06.688Z,39.9
2019-04-27T11:50:01.606Z,40.4
2019-04-27T11:54:59.955Z,49.5
2019-04-27T11:59:58.098Z,49.6
2019-04-27T12:04:55.992Z,55.9
2019-04-27T12:14:53.306Z,65.4
2019-04-27T12:19:50.245Z,69.8
2019-04-27T12:24:48.434Z,70
2019-04-27T12:34:46.475Z,67
2019-04-27T12:39:42.755Z,65.2
2019-04-27T12:44:42.424Z,68.9
2019-04-27T12:49:39.092Z,68
2019-04-27T12:54:36.775Z,67.3
2019-04-27T12:59:36.509Z,49.4
2019-04-27T13:04:38.287Z,53.9
2019-04-27T13:09:36.013Z,61
2019-04-27T13:14:33.988Z,59.4
2019-04-27T13:19:30.352Z,58.9
2019-04-27T13:24:29.766Z,53.8
2019-04-27T13:29:31.396Z,51.8
2019-04-27T13:34:27.490Z,53.3
2019-04-27T13:39:26.289Z,60.3
2019-04-27T13:44:23.984Z,59.9
2019-04-27T13:49:19.743Z,60
2019-04-27T13:54:23.564Z,63
2019-04-27T13:59:12.864Z,66.5
2019-04-27T14:04:07.252Z,66.3
2019-04-27T14:09:02.213Z,71.4
2019-04-27T14:13:57.488Z,74.8
2019-04-27T14:18:53.600Z,77.5
2019-04-27T14:23:48.976Z,79.3
2019-04-27T14:28:44.659Z,81.8
2019-04-27T14:33:40.510Z,82.3
2019-04-27T14:38:36.320Z,82.2
2019-04-27T14:43:32.248Z,81.9
2019-04-27T14:48:29.447Z,82.1
2019-04-27T14:53:25.009Z,85.2
2019-04-27T14:58:24.719Z,83.6
2019-04-27T15:03:19.964Z,85.7
2019-04-27T15:08:16.089Z,85.8
2019-04-27T15:13:12.619Z,86.5
2019-04-27T15:18:11.291Z,86.7
2019-04-27T15:23:07.873Z,88.1
2019-04-27T15:28:07.333Z,87
2019-04-27T15:33:00.357Z,87.5
2019-04-27T15:37:56.226Z,87.8
2019-04-27T15:42:53.182Z,88.3
2019-04-27T15:47:54.071Z,88.5
2019-04-27T15:52:44.016Z,87
2019-04-27T15:57:42.466Z,87.3
2019-04-27T16:02:38.415Z,87.4
2019-04-27T16:07:34.716Z,88
2019-04-27T16:12:31.365Z,87.9
2019-04-27T16:17:29.311Z,87.1
2019-04-27T16:22:26.802Z,87.3
2019-04-27T16:27:25.698Z,87.4
2019-04-27T16:32:18.007Z,86.8
2019-04-27T16:37:18.807Z,88.5
2019-04-27T16:42:14.176Z,88.1
2019-04-27T16:47:08.399Z,87.5
2019-04-27T16:52:03.648Z,88
2019-04-27T16:57:03.110Z,87.6
2019-04-27T17:01:56.137Z,88
2019-04-27T17:06:52.461Z,89.5
2019-04-27T17:11:50.057Z,89
2019-04-27T17:16:44.988Z,90
2019-04-27T17:21:41.293Z,89.4
2019-04-27T17:26:40.129Z,88.9
2019-04-27T17:31:33.104Z,91
2019-04-27T17:36:29.224Z,91.3
2019-04-27T17:41:23.964Z,91.5
2019-04-27T17:46:21.898Z,92.2
2019-04-27T17:51:16.307Z,91.9
2019-04-27T17:56:12.190Z,92.6
2019-04-27T18:01:08.464Z,93.1
2019-04-27T18:06:04.396Z,92.8
2019-04-27T18:11:03.131Z,93.1
2019-04-27T18:15:56.367Z,93.4
2019-04-27T18:20:52.103Z,93.8
2019-04-27T18:25:48.313Z,94.2
2019-04-27T18:30:44.482Z,94.2
2019-04-27T18:35:40.477Z,94
2019-04-27T18:40:38.165Z,93.9
2019-04-27T18:45:32.849Z,94.2
2019-04-27T18:50:28.806Z,94.3
2019-04-27T18:55:24.998Z,94.2
2019-04-27T19:00:21.111Z,94
2019-04-27T19:05:18.814Z,93.7
2019-04-27T19:10:13.669Z,93.6
2019-04-27T19:15:09.987Z,93.5
2019-04-27T19:20:08.254Z,93.6
2019-04-27T19:25:02.600Z,93.3
2019-04-27T19:29:58.964Z,93.4
2019-04-27T19:34:55.253Z,93.6
2019-04-27T19:39:50.951Z,93.6
2019-04-27T19:44:48.048Z,93.6
2019-04-27T19:49:43.874Z,93.4
2019-04-27T19:54:40.045Z,93.7
2019-04-27T19:59:37.882Z,93.6
2019-04-27T20:04:31.476Z,93.5
2019-04-27T20:09:27.695Z,93.6
2019-04-27T20:14:23.573Z,93.9
2019-04-27T20:19:19.452Z,93.5
2019-04-27T20:24:15.606Z,94.1
2019-04-27T20:29:11.863Z,94
2019-04-27T20:34:07.078Z,93.9
2019-04-27T20:39:05.683Z,94.2
2019-04-27T20:43:59.080Z,94.2
2019-04-27T20:48:54.971Z,94.4
2019-04-27T20:53:51.702Z,94
2019-04-27T20:58:46.359Z,94.2
2019-04-27T21:03:42.437Z,94.2
2019-04-27T21:08:38.325Z,94.7
2019-04-27T21:13:34.636Z,94.4
2019-04-27T21:18:31.792Z,94.7
2019-04-27T21:23:26.847Z,94.7
2019-04-27T21:28:22.922Z,94.8
2019-04-27T21:33:18.927Z,94.9
2019-04-27T21:38:15.020Z,95.1
2019-04-27T21:43:11.363Z,95.4
2019-04-27T21:48:07.272Z,95.2
2019-04-27T21:53:03.329Z,95.1
2019-04-27T21:58:01.438Z,94.9
2019-04-27T22:02:56.020Z,95.1
2019-04-27T22:07:52.249Z,95.3
2019-04-27T22:12:48.345Z,94.9
2019-04-27T22:17:44.532Z,94.9
2019-04-27T22:22:41.370Z,95.4
2019-04-27T22:27:36.939Z,95.2
2019-04-27T22:32:33.020Z,95.6
2019-04-27T22:37:29.026Z,95.4
2019-04-27T22:42:24.838Z,95.5
2019-04-27T22:47:21.518Z,95.4
2019-04-27T22:52:17.286Z,95.5
2019-04-27T22:57:13.615Z,95.2
2019-04-27T23:02:11.399Z,95.3
2019-04-27T23:07:06.203Z,95.1
2019-04-27T23:12:02.609Z,94.9
2019-04-27T23:16:58.480Z,94.9
2019-04-27T23:21:54.780Z,95
2019-04-27T23:26:50.405Z,94.9
2019-04-27T23:31:46.691Z,94.8
2019-04-27T23:36:44.265Z,94.8
2019-04-27T23:41:39.117Z,94.8
2019-04-27T23:46:35.195Z,94.8
2019-04-27T23:51:31.194Z,94.6
2019-04-27T23:56:27.574Z,94.7
